sensor_id;sensor_type;location;lat;lon;timestamp;pressure;altitude;pressure_sealevel;temperature;humidity
69153;BME280;56261;51.580;4.578;2023-04-27T00:01:36;102205.47;;;4.44;100.00
69153;BME280;56261;51.580;4.578;2023-04-27T00:04:02;102213.31;;;4.45;100.00
69153;BME280;56261;51.580;4.578;2023-04-27T00:06:28;102210.22;;;4.39;100.00
69153;BME280;56261;51.580;4.578;2023-04-27T00:08:54;102206.56;;;4.27;100.00
69153;BME280;56261;51.580;4.578;2023-04-27T00:11:20;102208.03;;;4.16;100.00
69153;BME280;56261;51.580;4.578;2023-04-27T00:13:46;102216.06;;;4.15;100.00
69153;BME280;56261;51.580;4.578;2023-04-27T00:16:12;102213.59;;;4.12;100.00
69153;BME280;56261;51.580;4.578;2023-04-27T00:18:37;102221.53;;;4.12;100.00
69153;BME280;56261;51.580;4.578;2023-04-27T00:21:03;102210.56;;;4.04;100.00
69153;BME280;56261;51.580;4.578;2023-04-27T00:23:28;102212.00;;;4.09;100.00
69153;BME280;56261;51.580;4.578;2023-04-27T00:25:53;102211.16;;;4.23;100.00
69153;BME280;56261;51.580;4.578;2023-04-27T00:28:19;102213.78;;;4.37;100.00
69153;BME280;56261;51.580;4.578;2023-04-27T00:30:44;102217.41;;;4.22;100.00
69153;BME280;56261;51.580;4.578;2023-04-27T00:33:10;102204.47;;;4.18;100.00
69153;BME280;56261;51.580;4.578;2023-04-27T00:35:36;102204.09;;;4.09;100.00
69153;BME280;56261;51.580;4.578;2023-04-27T00:38:01;102179.47;;;3.94;100.00
69153;BME280;56261;51.580;4.578;2023-04-27T00:40:27;102200.13;;;4.02;100.00
69153;BME280;56261;51.580;4.578;2023-04-27T00:42:52;102211.06;;;3.96;100.00
69153;BME280;56261;51.580;4.578;2023-04-27T00:45:18;102210.56;;;3.89;100.00
69153;BME280;56261;51.580;4.578;2023-04-27T00:47:44;102202.09;;;3.84;100.00
69153;BME280;56261;51.580;4.578;2023-04-27T00:50:09;102204.25;;;3.78;100.00
69153;BME280;56261;51.580;4.578;2023-04-27T00:52:36;102204.25;;;3.78;100.00
69153;BME280;56261;51.580;4.578;2023-04-27T00:55:03;102200.75;;;3.77;100.00
69153;BME280;56261;51.580;4.578;2023-04-27T00:57:29;102200.38;;;3.69;100.00
69153;BME280;56261;51.580;4.578;2023-04-27T00:59:55;102204.88;;;3.67;100.00
69153;BME280;56261;51.580;4.578;2023-04-27T01:02:21;102204.41;;;3.60;100.00
69153;BME280;56261;51.580;4.578;2023-04-27T01:04:47;102200.31;;;3.54;100.00
69153;BME280;56261;51.580;4.578;2023-04-27T01:07:12;102199.56;;;3.52;100.00
69153;BME280;56261;51.580;4.578;2023-04-27T01:09:38;102205.97;;;3.48;100.00
69153;BME280;56261;51.580;4.578;2023-04-27T01:12:03;102206.13;;;3.45;100.00
69153;BME280;56261;51.580;4.578;2023-04-27T01:14:31;102188.13;;;3.38;100.00
69153;BME280;56261;51.580;4.578;2023-04-27T01:16:57;102191.16;;;3.46;100.00
69153;BME280;56261;51.580;4.578;2023-04-27T01:19:22;102191.44;;;3.41;100.00
69153;BME280;56261;51.580;4.578;2023-04-27T01:21:48;102198.50;;;3.41;100.00
69153;BME280;56261;51.580;4.578;2023-04-27T01:24:13;102195.38;;;3.34;100.00
69153;BME280;56261;51.580;4.578;2023-04-27T01:26:39;102199.03;;;3.31;100.00
69153;BME280;56261;51.580;4.578;2023-04-27T01:29:04;102190.56;;;3.26;100.00
69153;BME280;56261;51.580;4.578;2023-04-27T01:31:30;102180.16;;;3.23;100.00
69153;BME280;56261;51.580;4.578;2023-04-27T01:33:56;102188.00;;;3.25;100.00
69153;BME280;56261;51.580;4.578;2023-04-27T01:36:21;102189.69;;;3.26;100.00
69153;BME280;56261;51.580;4.578;2023-04-27T01:38:46;102180.81;;;3.43;100.00
69153;BME280;56261;51.580;4.578;2023-04-27T01:41:12;102177.13;;;3.45;100.00
69153;BME280;56261;51.580;4.578;2023-04-27T01:43:37;102177.47;;;3.39;100.00
69153;BME280;56261;51.580;4.578;2023-04-27T01:46:08;102179.00;;;3.43;100.00
69153;BME280;56261;51.580;4.578;2023-04-27T01:48:34;102173.84;;;3.42;100.00
69153;BME280;56261;51.580;4.578;2023-04-27T01:51:00;102173.72;;;3.43;100.00
69153;BME280;56261;51.580;4.578;2023-04-27T01:53:26;102176.97;;;3.48;100.00
69153;BME280;56261;51.580;4.578;2023-04-27T01:55:51;102173.66;;;3.45;100.00
69153;BME280;56261;51.580;4.578;2023-04-27T01:58:17;102175.13;;;3.35;100.00
69153;BME280;56261;51.580;4.578;2023-04-27T02:00:42;102173.88;;;3.26;100.00
69153;BME280;56261;51.580;4.578;2023-04-27T02:03:07;102160.56;;;3.13;100.00
69153;BME280;56261;51.580;4.578;2023-04-27T02:05:33;102168.50;;;3.27;100.00
69153;BME280;56261;51.580;4.578;2023-04-27T02:07:58;102156.00;;;3.31;100.00
69153;BME280;56261;51.580;4.578;2023-04-27T02:10:23;102140.41;;;3.12;100.00
69153;BME280;56261;51.580;4.578;2023-04-27T02:12:49;102161.81;;;3.22;100.00
69153;BME280;56261;51.580;4.578;2023-04-27T02:15:14;102155.41;;;3.26;100.00
69153;BME280;56261;51.580;4.578;2023-04-27T02:17:40;102150.66;;;3.17;100.00
69153;BME280;56261;51.580;4.578;2023-04-27T02:20:06;102151.63;;;3.16;100.00
69153;BME280;56261;51.580;4.578;2023-04-27T02:22:32;102156.72;;;3.19;100.00
69153;BME280;56261;51.580;4.578;2023-04-27T02:24:58;102142.22;;;3.26;100.00
69153;BME280;56261;51.580;4.578;2023-04-27T02:27:24;102157.03;;;3.28;100.00
69153;BME280;56261;51.580;4.578;2023-04-27T02:29:49;102155.41;;;3.26;100.00
69153;BME280;56261;51.580;4.578;2023-04-27T02:32:15;102166.97;;;3.23;100.00
69153;BME280;56261;51.580;4.578;2023-04-27T02:34:40;102146.69;;;3.09;100.00
69153;BME280;56261;51.580;4.578;2023-04-27T02:37:05;102144.41;;;3.03;100.00
69153;BME280;56261;51.580;4.578;2023-04-27T02:39:31;102161.53;;;2.96;100.00
69153;BME280;56261;51.580;4.578;2023-04-27T02:41:56;102153.97;;;2.90;100.00
69153;BME280;56261;51.580;4.578;2023-04-27T02:44:21;102163.72;;;2.88;100.00
69153;BME280;56261;51.580;4.578;2023-04-27T02:46:47;102152.63;;;2.83;100.00
69153;BME280;56261;51.580;4.578;2023-04-27T02:49:12;102157.31;;;2.78;100.00
69153;BME280;56261;51.580;4.578;2023-04-27T02:51:38;102147.03;;;2.73;100.00
69153;BME280;56261;51.580;4.578;2023-04-27T02:54:03;102151.25;;;2.76;100.00
69153;BME280;56261;51.580;4.578;2023-04-27T02:56:28;102149.59;;;2.75;100.00
69153;BME280;56261;51.580;4.578;2023-04-27T02:58:54;102146.69;;;2.79;100.00
69153;BME280;56261;51.580;4.578;2023-04-27T03:01:20;102134.81;;;3.02;100.00
69153;BME280;56261;51.580;4.578;2023-04-27T03:03:46;102141.78;;;3.03;100.00
69153;BME280;56261;51.580;4.578;2023-04-27T03:06:12;102143.56;;;3.03;100.00
69153;BME280;56261;51.580;4.578;2023-04-27T03:08:37;102128.91;;;2.83;100.00
69153;BME280;56261;51.580;4.578;2023-04-27T03:11:03;102148.41;;;2.95;100.00
69153;BME280;56261;51.580;4.578;2023-04-27T03:13:28;102147.41;;;2.81;100.00
69153;BME280;56261;51.580;4.578;2023-04-27T03:15:53;102154.75;;;2.76;100.00
69153;BME280;56261;51.580;4.578;2023-04-27T03:18:19;102158.59;;;2.70;100.00
69153;BME280;56261;51.580;4.578;2023-04-27T03:20:45;102152.22;;;2.75;100.00
69153;BME280;56261;51.580;4.578;2023-04-27T03:23:10;102156.97;;;2.84;100.00
69153;BME280;56261;51.580;4.578;2023-04-27T03:25:36;102145.38;;;3.02;100.00
69153;BME280;56261;51.580;4.578;2023-04-27T03:28:01;102153.50;;;3.14;100.00
69153;BME280;56261;51.580;4.578;2023-04-27T03:30:27;102147.75;;;3.21;100.00
69153;BME280;56261;51.580;4.578;2023-04-27T03:32:52;102152.03;;;3.24;100.00
69153;BME280;56261;51.580;4.578;2023-04-27T03:35:18;102156.06;;;3.15;100.00
69153;BME280;56261;51.580;4.578;2023-04-27T03:37:44;102156.06;;;3.15;100.00
69153;BME280;56261;51.580;4.578;2023-04-27T03:40:10;102165.72;;;3.15;100.00
69153;BME280;56261;51.580;4.578;2023-04-27T03:42:36;102152.66;;;3.13;100.00
69153;BME280;56261;51.580;4.578;2023-04-27T03:45:01;102170.50;;;3.08;100.00
69153;BME280;56261;51.580;4.578;2023-04-27T03:47:27;102157.31;;;3.08;100.00
69153;BME280;56261;51.580;4.578;2023-04-27T03:49:52;102162.16;;;3.16;100.00
69153;BME280;56261;51.580;4.578;2023-04-27T03:52:17;102156.72;;;3.19;100.00
69153;BME280;56261;51.580;4.578;2023-04-27T03:54:43;102157.03;;;3.28;100.00
69153;BME280;56261;51.580;4.578;2023-04-27T03:57:08;102166.50;;;3.17;100.00
69153;BME280;56261;51.580;4.578;2023-04-27T03:59:34;102172.47;;;3.04;100.00
69153;BME280;56261;51.580;4.578;2023-04-27T04:01:59;102174.63;;;2.98;100.00
69153;BME280;56261;51.580;4.578;2023-04-27T04:04:24;102178.09;;;2.98;100.00
69153;BME280;56261;51.580;4.578;2023-04-27T04:06:50;102173.31;;;3.05;100.00
69153;BME280;56261;51.580;4.578;2023-04-27T04:09:15;102167.03;;;3.07;100.00
69153;BME280;56261;51.580;4.578;2023-04-27T04:11:41;102175.00;;;3.22;100.00
69153;BME280;56261;51.580;4.578;2023-04-27T04:14:06;102180.84;;;3.27;100.00
69153;BME280;56261;51.580;4.578;2023-04-27T04:16:32;102180.31;;;3.06;100.00
69153;BME280;56261;51.580;4.578;2023-04-27T04:18:58;102162.22;;;3.00;100.00
69153;BME280;56261;51.580;4.578;2023-04-27T04:21:23;102173.56;;;3.16;100.00
69153;BME280;56261;51.580;4.578;2023-04-27T04:23:48;102173.97;;;3.24;100.00
69153;BME280;56261;51.580;4.578;2023-04-27T04:26:14;102174.31;;;3.18;100.00
69153;BME280;56261;51.580;4.578;2023-04-27T04:28:39;102170.06;;;3.16;100.00
69153;BME280;56261;51.580;4.578;2023-04-27T04:31:05;102178.81;;;3.16;100.00
69153;BME280;56261;51.580;4.578;2023-04-27T04:33:32;102183.19;;;3.17;100.00
69153;BME280;56261;51.580;4.578;2023-04-27T04:35:57;102184.88;;;3.18;100.00
69153;BME280;56261;51.580;4.578;2023-04-27T04:38:23;102188.44;;;3.17;100.00
69153;BME280;56261;51.580;4.578;2023-04-27T04:40:48;102191.44;;;3.11;100.00
69153;BME280;56261;51.580;4.578;2023-04-27T04:43:15;102187.69;;;3.15;100.00
69153;BME280;56261;51.580;4.578;2023-04-27T04:45:41;102193.34;;;3.23;100.00
69153;BME280;56261;51.580;4.578;2023-04-27T04:48:06;102195.59;;;3.15;100.00
69153;BME280;56261;51.580;4.578;2023-04-27T04:50:32;102187.75;;;3.14;100.00
69153;BME280;56261;51.580;4.578;2023-04-27T04:52:58;102195.44;;;3.02;100.00
69153;BME280;56261;51.580;4.578;2023-04-27T04:55:25;102187.75;;;3.14;100.00
69153;BME280;56261;51.580;4.578;2023-04-27T04:57:51;102191.41;;;3.27;100.00
69153;BME280;56261;51.580;4.578;2023-04-27T05:00:17;102200.00;;;3.15;100.00
69153;BME280;56261;51.580;4.578;2023-04-27T05:02:42;102201.78;;;3.14;100.00
69153;BME280;56261;51.580;4.578;2023-04-27T05:05:08;102198.31;;;3.14;100.00
69153;BME280;56261;51.580;4.578;2023-04-27T05:07:34;102206.63;;;3.22;100.00
69153;BME280;56261;51.580;4.578;2023-04-27T05:09:59;102203.31;;;3.18;100.00
69153;BME280;56261;51.580;4.578;2023-04-27T05:12:25;102201.06;;;3.42;100.00
69153;BME280;56261;51.580;4.578;2023-04-27T05:14:51;102204.47;;;3.44;100.00
69153;BME280;56261;51.580;4.578;2023-04-27T05:17:16;102210.56;;;3.45;100.00
69153;BME280;56261;51.580;4.578;2023-04-27T05:19:42;102201.91;;;3.43;100.00
69153;BME280;56261;51.580;4.578;2023-04-27T05:22:07;102200.38;;;3.39;100.00
69153;BME280;56261;51.580;4.578;2023-04-27T05:24:33;102204.69;;;3.56;100.00
69153;BME280;56261;51.580;4.578;2023-04-27T05:26:58;102200.25;;;3.70;100.00
69153;BME280;56261;51.580;4.578;2023-04-27T05:29:24;102205.66;;;3.69;100.00
69153;BME280;56261;51.580;4.578;2023-04-27T05:31:49;102205.44;;;3.72;100.00
69153;BME280;56261;51.580;4.578;2023-04-27T05:34:15;102204.63;;;3.86;100.00
69153;BME280;56261;51.580;4.578;2023-04-27T05:36:40;102185.97;;;3.89;100.00
69153;BME280;56261;51.580;4.578;2023-04-27T05:39:06;102210.31;;;3.94;100.00
69153;BME280;56261;51.580;4.578;2023-04-27T05:41:32;102211.16;;;4.09;100.00
69153;BME280;56261;51.580;4.578;2023-04-27T05:43:57;102215.50;;;4.24;100.00
69153;BME280;56261;51.580;4.578;2023-04-27T05:46:22;102224.91;;;4.28;100.00
69153;BME280;56261;51.580;4.578;2023-04-27T05:48:48;102217.56;;;4.48;100.00
69153;BME280;56261;51.580;4.578;2023-04-27T05:51:13;102224.34;;;4.52;100.00
69153;BME280;56261;51.580;4.578;2023-04-27T05:53:39;102214.50;;;4.68;100.00
69153;BME280;56261;51.580;4.578;2023-04-27T05:56:04;102221.97;;;4.76;100.00
69153;BME280;56261;51.580;4.578;2023-04-27T05:58:31;102213.34;;;4.87;100.00
69153;BME280;56261;51.580;4.578;2023-04-27T06:00:58;102220.53;;;5.12;100.00
69153;BME280;56261;51.580;4.578;2023-04-27T06:03:24;102222.28;;;5.66;100.00
69153;BME280;56261;51.580;4.578;2023-04-27T06:05:57;102222.00;;;6.09;100.00
69153;BME280;56261;51.580;4.578;2023-04-27T06:08:23;102221.44;;;6.42;100.00
69153;BME280;56261;51.580;4.578;2023-04-27T06:10:49;102232.69;;;6.46;100.00
69153;BME280;56261;51.580;4.578;2023-04-27T06:13:15;102233.06;;;6.65;100.00
69153;BME280;56261;51.580;4.578;2023-04-27T06:15:41;102229.31;;;6.80;100.00
69153;BME280;56261;51.580;4.578;2023-04-27T06:18:06;102228.56;;;7.15;100.00
69153;BME280;56261;51.580;4.578;2023-04-27T06:20:32;102231.94;;;6.93;100.00
69153;BME280;56261;51.580;4.578;2023-04-27T06:22:57;102226.84;;;7.14;100.00
69153;BME280;56261;51.580;4.578;2023-04-27T06:25:24;102224.53;;;7.34;100.00
69153;BME280;56261;51.580;4.578;2023-04-27T06:27:51;102223.69;;;7.68;100.00
69153;BME280;56261;51.580;4.578;2023-04-27T06:30:16;102224.03;;;7.28;100.00
69153;BME280;56261;51.580;4.578;2023-04-27T06:32:42;102218.09;;;7.25;100.00
69153;BME280;56261;51.580;4.578;2023-04-27T06:35:07;102216.38;;;7.13;100.00
69153;BME280;56261;51.580;4.578;2023-04-27T06:37:33;102219.06;;;7.24;100.00
69153;BME280;56261;51.580;4.578;2023-04-27T06:39:58;102231.81;;;7.43;100.00
69153;BME280;56261;51.580;4.578;2023-04-27T06:42:24;102225.00;;;7.63;100.00
69153;BME280;56261;51.580;4.578;2023-04-27T06:44:52;102220.03;;;8.39;100.00
69153;BME280;56261;51.580;4.578;2023-04-27T06:47:18;102228.28;;;8.47;100.00
69153;BME280;56261;51.580;4.578;2023-04-27T06:49:43;102229.34;;;8.78;100.00
69153;BME280;56261;51.580;4.578;2023-04-27T06:52:08;102226.34;;;8.60;100.00
69153;BME280;56261;51.580;4.578;2023-04-27T06:54:34;102217.16;;;9.08;100.00
69153;BME280;56261;51.580;4.578;2023-04-27T06:56:59;102220.50;;;9.53;100.00
69153;BME280;56261;51.580;4.578;2023-04-27T06:59:24;102219.38;;;9.03;100.00
69153;BME280;56261;51.580;4.578;2023-04-27T07:01:50;102217.91;;;9.42;100.00
69153;BME280;56261;51.580;4.578;2023-04-27T07:04:16;102218.09;;;9.92;100.00
69153;BME280;56261;51.580;4.578;2023-04-27T07:06:41;102211.56;;;10.06;100.00
69153;BME280;56261;51.580;4.578;2023-04-27T07:09:06;102202.94;;;10.14;100.00
69153;BME280;56261;51.580;4.578;2023-04-27T07:11:32;102217.63;;;10.08;100.00
69153;BME280;56261;51.580;4.578;2023-04-27T07:13:57;102219.47;;;9.87;100.00
69153;BME280;56261;51.580;4.578;2023-04-27T07:16:23;102224.06;;;10.06;100.00
69153;BME280;56261;51.580;4.578;2023-04-27T07:18:48;102217.66;;;10.39;100.00
69153;BME280;56261;51.580;4.578;2023-04-27T07:21:13;102219.25;;;10.21;100.00
69153;BME280;56261;51.580;4.578;2023-04-27T07:23:39;102213.63;;;10.24;100.00
69153;BME280;56261;51.580;4.578;2023-04-27T07:26:07;102221.13;;;10.09;100.00
69153;BME280;56261;51.580;4.578;2023-04-27T07:28:34;102210.38;;;10.20;100.00
69153;BME280;56261;51.580;4.578;2023-04-27T07:31:00;102223.66;;;10.10;100.00
69153;BME280;56261;51.580;4.578;2023-04-27T07:33:26;102212.69;;;10.65;100.00
69153;BME280;56261;51.580;4.578;2023-04-27T07:35:52;102217.94;;;10.86;100.00
69153;BME280;56261;51.580;4.578;2023-04-27T07:38:18;102220.41;;;10.68;100.00
69153;BME280;56261;51.580;4.578;2023-04-27T07:40:43;102219.00;;;10.64;100.00
69153;BME280;56261;51.580;4.578;2023-04-27T07:43:10;102221.03;;;10.41;100.00
69153;BME280;56261;51.580;4.578;2023-04-27T07:45:36;102210.09;;;11.04;100.00
69153;BME280;56261;51.580;4.578;2023-04-27T07:48:03;102219.66;;;11.26;100.00
69153;BME280;56261;51.580;4.578;2023-04-27T07:50:30;102220.06;;;11.31;100.00
69153;BME280;56261;51.580;4.578;2023-04-27T07:52:56;102220.06;;;11.31;100.00
69153;BME280;56261;51.580;4.578;2023-04-27T07:55:22;102230.03;;;11.97;100.00
69153;BME280;56261;51.580;4.578;2023-04-27T07:57:52;102217.97;;;12.58;100.00
69153;BME280;56261;51.580;4.578;2023-04-27T08:00:18;102213.69;;;12.10;100.00
69153;BME280;56261;51.580;4.578;2023-04-27T08:02:44;102205.97;;;11.97;100.00
69153;BME280;56261;51.580;4.578;2023-04-27T08:05:09;102206.38;;;11.83;100.00
69153;BME280;56261;51.580;4.578;2023-04-27T08:07:35;102196.44;;;12.22;100.00
69153;BME280;56261;51.580;4.578;2023-04-27T08:10:00;102180.94;;;12.54;100.00
69153;BME280;56261;51.580;4.578;2023-04-27T08:12:26;102194.47;;;11.68;100.00
69153;BME280;56261;51.580;4.578;2023-04-27T08:14:51;102196.66;;;12.01;100.00
69153;BME280;56261;51.580;4.578;2023-04-27T08:17:17;102204.59;;;11.64;100.00
69153;BME280;56261;51.580;4.578;2023-04-27T08:19:43;102197.09;;;12.34;100.00
69153;BME280;56261;51.580;4.578;2023-04-27T08:22:08;102190.69;;;12.17;100.00
69153;BME280;56261;51.580;4.578;2023-04-27T08:24:34;102184.09;;;12.12;100.00
69153;BME280;56261;51.580;4.578;2023-04-27T08:27:00;102185.88;;;12.21;100.00
69153;BME280;56261;51.580;4.578;2023-04-27T08:29:27;102185.75;;;12.50;100.00
69153;BME280;56261;51.580;4.578;2023-04-27T08:31:53;102191.13;;;12.68;100.00
69153;BME280;56261;51.580;4.578;2023-04-27T08:34:18;102188.16;;;12.43;100.00
69153;BME280;56261;51.580;4.578;2023-04-27T08:36:43;102179.69;;;12.76;100.00
69153;BME280;56261;51.580;4.578;2023-04-27T08:39:09;102174.34;;;13.12;100.00
69153;BME280;56261;51.580;4.578;2023-04-27T08:41:34;102175.91;;;13.32;100.00
69153;BME280;56261;51.580;4.578;2023-04-27T08:44:00;102179.53;;;12.77;100.00
69153;BME280;56261;51.580;4.578;2023-04-27T08:46:25;102181.31;;;12.59;100.00
69153;BME280;56261;51.580;4.578;2023-04-27T08:48:52;102178.03;;;13.11;100.00
69153;BME280;56261;51.580;4.578;2023-04-27T08:51:18;102186.81;;;13.21;100.00
69153;BME280;56261;51.580;4.578;2023-04-27T08:53:52;102181.44;;;12.85;100.00
69153;BME280;56261;51.580;4.578;2023-04-27T08:56:19;102180.25;;;12.79;100.00
69153;BME280;56261;51.580;4.578;2023-04-27T08:58:47;102173.75;;;12.82;100.00
69153;BME280;56261;51.580;4.578;2023-04-27T09:01:13;102177.38;;;12.63;100.00
69153;BME280;56261;51.580;4.578;2023-04-27T09:03:38;102174.78;;;12.71;100.00
69153;BME280;56261;51.580;4.578;2023-04-27T09:06:04;102178.72;;;12.21;100.00
69153;BME280;56261;51.580;4.578;2023-04-27T09:08:56;102168.00;;;12.49;100.00
69153;BME280;56261;51.580;4.578;2023-04-27T09:11:35;102173.50;;;12.48;100.00
69153;BME280;56261;51.580;4.578;2023-04-27T09:14:02;102167.81;;;12.33;100.00
69153;BME280;56261;51.580;4.578;2023-04-27T09:16:29;102170.31;;;12.07;100.00
69153;BME280;56261;51.580;4.578;2023-04-27T09:18:56;102173.31;;;12.77;98.63
69153;BME280;56261;51.580;4.578;2023-04-27T09:21:23;102166.41;;;13.02;99.21
69153;BME280;56261;51.580;4.578;2023-04-27T09:23:48;102167.34;;;13.28;97.60
69153;BME280;56261;51.580;4.578;2023-04-27T09:26:22;102171.28;;;13.06;94.65
69153;BME280;56261;51.580;4.578;2023-04-27T09:28:50;102167.59;;;13.43;95.62
69153;BME280;56261;51.580;4.578;2023-04-27T09:31:16;102162.25;;;13.43;96.50
69153;BME280;56261;51.580;4.578;2023-04-27T09:33:43;102163.84;;;13.54;98.36
69153;BME280;56261;51.580;4.578;2023-04-27T09:36:10;102166.56;;;13.88;93.68
69153;BME280;56261;51.580;4.578;2023-04-27T09:38:36;102158.78;;;13.77;91.70
69153;BME280;56261;51.580;4.578;2023-04-27T09:41:01;102149.81;;;13.86;94.01
69153;BME280;56261;51.580;4.578;2023-04-27T09:43:28;102155.25;;;14.03;89.98
69153;BME280;56261;51.580;4.578;2023-04-27T09:45:55;102167.31;;;13.99;94.54
69153;BME280;56261;51.580;4.578;2023-04-27T09:48:21;102166.03;;;14.11;88.89
69153;BME280;56261;51.580;4.578;2023-04-27T09:50:48;102168.22;;;13.37;83.64
69153;BME280;56261;51.580;4.578;2023-04-27T09:53:17;102172.72;;;13.19;91.06
69153;BME280;56261;51.580;4.578;2023-04-27T09:56:02;102168.78;;;13.67;89.67
69153;BME280;56261;51.580;4.578;2023-04-27T10:07:15;102160.69;;;13.59;81.56
69153;BME280;56261;51.580;4.578;2023-04-27T10:09:48;102158.47;;;13.54;82.68
69153;BME280;56261;51.580;4.578;2023-04-27T10:12:35;102151.88;;;13.66;84.10
69153;BME280;56261;51.580;4.578;2023-04-27T10:15:11;102148.53;;;14.41;86.42
69153;BME280;56261;51.580;4.578;2023-04-27T10:17:37;102155.84;;;13.88;80.81
69153;BME280;56261;51.580;4.578;2023-04-27T10:20:04;102158.69;;;13.87;76.72
69153;BME280;56261;51.580;4.578;2023-04-27T10:22:44;102139.41;;;14.26;83.39
69153;BME280;56261;51.580;4.578;2023-04-27T10:25:22;102133.88;;;14.70;77.16
69153;BME280;56261;51.580;4.578;2023-04-27T10:30:17;102132.16;;;14.10;74.38
69153;BME280;56261;51.580;4.578;2023-04-27T10:32:55;102128.44;;;14.03;74.00
69153;BME280;56261;51.580;4.578;2023-04-27T10:35:40;102129.13;;;14.05;85.35
69153;BME280;56261;51.580;4.578;2023-04-27T10:38:13;102123.25;;;14.09;76.45
69153;BME280;56261;51.580;4.578;2023-04-27T10:40:39;102122.25;;;13.76;76.94
69153;BME280;56261;51.580;4.578;2023-04-27T10:43:12;102119.00;;;13.64;77.65
69153;BME280;56261;51.580;4.578;2023-04-27T10:45:38;102109.09;;;13.91;77.38
69153;BME280;56261;51.580;4.578;2023-04-27T10:48:04;102113.81;;;13.63;76.30
69153;BME280;56261;51.580;4.578;2023-04-27T10:50:29;102110.25;;;13.88;76.67
69153;BME280;56261;51.580;4.578;2023-04-27T10:53:06;102106.94;;;13.68;76.57
69153;BME280;56261;51.580;4.578;2023-04-27T10:55:32;102109.31;;;14.06;83.47
69153;BME280;56261;51.580;4.578;2023-04-27T10:57:58;102107.28;;;14.00;78.43
69153;BME280;56261;51.580;4.578;2023-04-27T11:00:26;102121.22;;;13.69;73.56
69153;BME280;56261;51.580;4.578;2023-04-27T11:02:53;102091.94;;;13.84;78.49
69153;BME280;56261;51.580;4.578;2023-04-27T11:05:24;102112.63;;;14.00;71.20
69153;BME280;56261;51.580;4.578;2023-04-27T11:08:03;102104.47;;;13.75;75.32
69153;BME280;56261;51.580;4.578;2023-04-27T11:10:29;102113.59;;;13.82;71.73
69153;BME280;56261;51.580;4.578;2023-04-27T11:12:55;102111.25;;;13.53;71.68
69153;BME280;56261;51.580;4.578;2023-04-27T11:15:21;102102.19;;;13.54;71.12
69153;BME280;56261;51.580;4.578;2023-04-27T11:17:46;102087.22;;;14.12;75.40
69153;BME280;56261;51.580;4.578;2023-04-27T11:20:12;102083.06;;;13.83;74.98
69153;BME280;56261;51.580;4.578;2023-04-27T11:22:45;102086.28;;;13.87;67.53
69153;BME280;56261;51.580;4.578;2023-04-27T11:25:11;102079.72;;;13.81;66.93
69153;BME280;56261;51.580;4.578;2023-04-27T11:27:38;102100.13;;;13.48;65.52
69153;BME280;56261;51.580;4.578;2023-04-27T11:30:04;102097.25;;;13.67;65.50
69153;BME280;56261;51.580;4.578;2023-04-27T11:32:29;102085.34;;;14.04;68.81
69153;BME280;56261;51.580;4.578;2023-04-27T11:34:55;102076.06;;;13.90;67.07
69153;BME280;56261;51.580;4.578;2023-04-27T11:37:25;102081.22;;;13.84;65.59
69153;BME280;56261;51.580;4.578;2023-04-27T11:39:52;102074.44;;;14.06;68.11
69153;BME280;56261;51.580;4.578;2023-04-27T11:42:23;102074.81;;;14.11;68.38
69153;BME280;56261;51.580;4.578;2023-04-27T11:45:10;102067.13;;;14.24;64.45
69153;BME280;56261;51.580;4.578;2023-04-27T11:47:36;102077.66;;;14.60;67.08
69153;BME280;56261;51.580;4.578;2023-04-27T11:50:04;102072.03;;;14.45;65.18
69153;BME280;56261;51.580;4.578;2023-04-27T11:52:34;102056.56;;;14.23;65.95
69153;BME280;56261;51.580;4.578;2023-04-27T11:55:01;102058.59;;;14.37;62.73
69153;BME280;56261;51.580;4.578;2023-04-27T11:57:32;102056.34;;;14.67;69.73
69153;BME280;56261;51.580;4.578;2023-04-27T12:00:00;102054.78;;;15.13;67.55
69153;BME280;56261;51.580;4.578;2023-04-27T12:02:27;102061.03;;;14.81;59.84
69153;BME280;56261;51.580;4.578;2023-04-27T12:04:53;102059.81;;;13.92;59.49
69153;BME280;56261;51.580;4.578;2023-04-27T12:07:19;102063.72;;;14.57;64.21
69153;BME280;56261;51.580;4.578;2023-04-27T12:09:46;102044.41;;;14.86;61.08
69153;BME280;56261;51.580;4.578;2023-04-27T12:12:12;102058.19;;;14.74;58.90
69153;BME280;56261;51.580;4.578;2023-04-27T12:14:38;102062.56;;;14.92;59.70
69153;BME280;56261;51.580;4.578;2023-04-27T12:17:04;102067.81;;;14.35;56.23
69153;BME280;56261;51.580;4.578;2023-04-27T12:19:29;102069.47;;;14.19;59.46
69153;BME280;56261;51.580;4.578;2023-04-27T12:21:56;102053.06;;;14.39;59.42
69153;BME280;56261;51.580;4.578;2023-04-27T12:24:22;102059.94;;;14.41;59.55
69153;BME280;56261;51.580;4.578;2023-04-27T12:26:48;102055.16;;;14.78;61.38
69153;BME280;56261;51.580;4.578;2023-04-27T12:29:14;102055.91;;;14.29;62.41
69153;BME280;56261;51.580;4.578;2023-04-27T12:31:39;102051.28;;;13.97;56.63
69153;BME280;56261;51.580;4.578;2023-04-27T12:34:05;102054.63;;;14.58;59.48
69153;BME280;56261;51.580;4.578;2023-04-27T12:36:30;102047.75;;;14.55;59.76
69153;BME280;56261;51.580;4.578;2023-04-27T12:38:59;102038.19;;;14.77;57.82
69153;BME280;56261;51.580;4.578;2023-04-27T12:41:26;102034.00;;;14.66;60.53
69153;BME280;56261;51.580;4.578;2023-04-27T12:43:51;101994.34;;;14.27;56.54
69153;BME280;56261;51.580;4.578;2023-04-27T12:46:16;102040.22;;;15.08;53.29
69153;BME280;56261;51.580;4.578;2023-04-27T12:48:43;102023.25;;;14.66;55.45
69153;BME280;56261;51.580;4.578;2023-04-27T12:51:08;102028.63;;;14.91;52.88
69153;BME280;56261;51.580;4.578;2023-04-27T12:53:34;102016.63;;;15.34;54.94
69153;BME280;56261;51.580;4.578;2023-04-27T12:56:00;102010.16;;;15.60;57.11